Time;durP1;ratioP1;P1;durP2;ratioP2;P2;SDS_P1;SDS_P2;PMS_P1;PMS_P2;Temp;Humidity;BMP_temperature;BMP_pressure;BME280_temperature;BME280_humidity;BME280_pressure;Samples;Min_cycle;Max_cycle;Signal;HPM_P1;HPM_P2
2021/05/29 00:02:12;;;;;;;4.13;3.17;;;;;;;14.49;100.00;94558.56;4975765;28;20201;-83
2021/05/29 00:04:39;;;;;;;3.63;3.03;;;;;;;14.65;100.00;94565.09;4975950;28;20228;-83
2021/05/29 00:07:06;;;;;;;3.33;3.13;;;;;;;14.64;100.00;94573.25;4975919;28;20197;-83
2021/05/29 00:09:33;;;;;;;3.10;2.90;;;;;;;14.71;100.00;94566.81;4975792;28;20624;-83
2021/05/29 00:12:01;;;;;;;4.13;2.80;;;;;;;14.72;100.00;94584.31;4975823;28;20237;-83
2021/05/29 00:14:30;;;;;;;2.90;2.70;;;;;;;14.71;100.00;94577.41;4974355;28;20212;-82
2021/05/29 00:16:57;;;;;;;3.03;2.83;;;;;;;14.78;100.00;94579.94;4973984;28;20208;-83
2021/05/29 00:19:23;;;;;;;2.60;2.40;;;;;;;14.80;100.00;94590.31;4975263;28;20240;-83
2021/05/29 00:21:50;;;;;;;2.87;2.67;;;;;;;14.83;100.00;94589.88;4975899;28;20205;-82
2021/05/29 00:24:17;;;;;;;2.60;2.40;;;;;;;14.84;100.00;94584.34;4975315;28;20270;-83
2021/05/29 00:26:44;;;;;;;4.80;2.60;;;;;;;14.87;100.00;94591.81;4975606;28;20705;-83
2021/05/29 00:29:12;;;;;;;4.20;2.63;;;;;;;14.79;100.00;94578.94;4975420;28;20227;-83
2021/05/29 00:31:39;;;;;;;4.47;2.73;;;;;;;14.79;100.00;94583.41;4975464;28;20693;-83
2021/05/29 00:34:06;;;;;;;2.50;2.30;;;;;;;14.93;100.00;94574.25;4974921;28;20206;-83
2021/05/29 00:36:33;;;;;;;6.33;2.90;;;;;;;14.84;100.00;94592.28;4975081;28;20237;-83
2021/05/29 00:39:00;;;;;;;2.77;2.57;;;;;;;14.89;100.00;94589.75;4975096;28;20612;-82
2021/05/29 00:41:26;;;;;;;3.17;2.60;;;;;;;14.82;100.00;94591.69;4975608;28;20227;-83
2021/05/29 00:43:53;;;;;;;3.17;2.80;;;;;;;14.91;100.00;94586.91;4974626;28;20287;-83
2021/05/29 00:46:21;;;;;;;2.87;2.57;;;;;;;14.78;100.00;94577.31;4975235;28;20245;-83
2021/05/29 00:48:48;;;;;;;2.30;2.20;;;;;;;14.73;100.00;94577.19;4974907;28;20197;-82
2021/05/29 00:51:15;;;;;;;2.90;2.70;;;;;;;14.83;100.00;94580.09;4975129;28;20201;-83
2021/05/29 00:53:45;;;;;;;3.13;2.83;;;;;;;14.76;100.00;94583.88;4974598;28;20710;-83
2021/05/29 00:56:12;;;;;;;2.97;2.33;;;;;;;14.92;100.00;94577.91;4975319;28;20563;-82
2021/05/29 00:58:39;;;;;;;3.27;2.67;;;;;;;14.86;100.00;94587.56;4974683;28;20209;-83
2021/05/29 01:01:06;;;;;;;3.03;2.33;;;;;;;14.78;100.00;94582.59;4974943;28;20204;-83
2021/05/29 01:03:36;;;;;;;3.77;2.83;;;;;;;14.80;100.00;94575.25;4974459;28;20201;-83
2021/05/29 01:06:04;;;;;;;4.50;2.40;;;;;;;14.77;100.00;94578.34;4974787;28;20225;-82
2021/05/29 01:08:30;;;;;;;5.27;2.80;;;;;;;14.80;100.00;94569.16;4974832;28;20204;-83
2021/05/29 01:10:57;;;;;;;3.10;2.90;;;;;;;14.77;100.00;94559.84;4974698;28;20686;-83
2021/05/29 01:13:29;;;;;;;3.47;2.57;;;;;;;14.77;100.00;94557.19;4974320;28;20213;-82
2021/05/29 01:16:02;;;;;;;3.53;2.80;;;;;;;14.76;100.00;94552.13;4974694;28;20190;-83
2021/05/29 01:18:29;;;;;;;4.30;2.43;;;;;;;14.62;100.00;94543.59;4974413;28;20193;-82
2021/05/29 01:21:00;;;;;;;3.93;2.63;;;;;;;14.62;100.00;94543.59;4974422;28;20237;-83
2021/05/29 01:23:28;;;;;;;3.50;2.80;;;;;;;14.55;100.00;94541.03;4974358;28;20632;-83
2021/05/29 01:25:55;;;;;;;4.43;2.80;;;;;;;14.63;100.00;94543.34;4973862;28;20320;-83
2021/05/29 01:28:26;;;;;;;3.00;2.50;;;;;;;14.59;100.00;94559.91;4974307;28;20210;-83
2021/05/29 01:30:58;;;;;;;2.70;2.50;;;;;;;14.58;100.00;94545.06;4974134;28;20653;-83
2021/05/29 01:33:27;;;;;;;7.23;3.03;;;;;;;14.51;100.00;94545.13;4974130;28;20241;-83
2021/05/29 01:36:00;;;;;;;2.33;2.23;;;;;;;14.48;100.00;94546.38;4973863;28;20244;-83
2021/05/29 01:38:28;;;;;;;3.03;2.60;;;;;;;14.48;100.00;94535.00;4974315;28;20193;-82
2021/05/29 01:41:01;;;;;;;2.53;2.33;;;;;;;14.56;100.00;94553.22;4974155;28;20193;-83
2021/05/29 01:43:28;;;;;;;4.63;2.53;;;;;;;14.45;100.00;94544.19;4974023;28;20221;-81
2021/05/29 01:45:55;;;;;;;2.83;2.47;;;;;;;14.39;100.00;94537.16;4974037;28;20225;-83
2021/05/29 01:48:22;;;;;;;2.97;2.77;;;;;;;14.43;100.00;94538.31;4974087;28;20712;-82
2021/05/29 01:50:49;;;;;;;3.40;2.40;;;;;;;14.43;100.00;94542.78;4974290;28;20580;-82
2021/05/29 01:53:19;;;;;;;3.77;2.70;;;;;;;14.53;100.00;94539.66;4973797;28;20216;-82
2021/05/29 01:55:47;;;;;;;5.63;2.30;;;;;;;14.43;100.00;94540.94;4973926;28;20201;-82
2021/05/29 01:58:16;;;;;;;2.43;2.23;;;;;;;14.35;100.00;94535.19;4973955;28;20205;-82
2021/05/29 02:00:42;;;;;;;2.27;2.07;;;;;;;14.35;100.00;94529.91;4973778;28;20200;-82
2021/05/29 02:03:09;;;;;;;4.47;2.30;;;;;;;14.41;100.00;94521.06;4973834;28;20324;-82
2021/05/29 02:05:37;;;;;;;3.73;2.40;;;;;;;14.43;100.00;94519.81;4973929;28;20247;-82
2021/05/29 02:08:06;;;;;;;2.43;2.23;;;;;;;14.29;100.00;94513.09;4973578;28;20296;-82
2021/05/29 02:10:34;;;;;;;5.37;2.50;;;;;;;14.33;100.00;94521.38;4973865;28;20263;-82
2021/05/29 02:13:04;;;;;;;2.50;2.30;;;;;;;14.21;100.00;94518.72;4973267;28;20240;-82
2021/05/29 02:15:33;;;;;;;2.57;2.37;;;;;;;14.22;100.00;94507.09;4973590;28;20256;-82
2021/05/29 02:18:03;;;;;;;2.17;2.00;;;;;;;14.20;100.00;94514.44;4973382;28;20201;-82
2021/05/29 02:20:40;;;;;;;3.90;2.00;;;;;;;14.17;100.00;94501.69;4973489;28;20186;-82
2021/05/29 02:23:09;;;;;;;4.57;2.73;;;;;;;14.08;100.00;94503.81;4973063;28;20188;-82
2021/05/29 02:25:36;;;;;;;4.00;3.40;;;;;;;14.01;100.00;94511.03;4973367;28;20225;-83
2021/05/29 02:28:04;;;;;;;2.60;2.40;;;;;;;14.08;100.00;94505.66;4973545;28;20272;-82
2021/05/29 02:30:31;;;;;;;2.43;2.23;;;;;;;14.06;100.00;94511.16;4973651;28;20645;-82
2021/05/29 02:32:58;;;;;;;2.40;2.27;;;;;;;14.10;100.00;94517.63;4973215;28;20676;-82
2021/05/29 02:35:25;;;;;;;5.60;2.20;;;;;;;14.08;100.00;94510.94;4972947;28;20264;-82
2021/05/29 02:37:52;;;;;;;3.97;2.40;;;;;;;14.00;100.00;94517.34;4972470;28;20201;-82
2021/05/29 02:40:20;;;;;;;2.60;2.00;;;;;;;13.98;100.00;94517.56;4973011;28;20201;-83
2021/05/29 02:42:47;;;;;;;2.60;2.20;;;;;;;14.08;100.00;94511.75;4973163;28;20678;-83
2021/05/29 02:45:15;;;;;;;2.10;2.00;;;;;;;14.00;100.00;94506.78;4972820;28;20232;-82
2021/05/29 02:47:42;;;;;;;2.30;2.17;;;;;;;13.96;100.00;94510.91;4973191;28;20208;-82
2021/05/29 02:50:11;;;;;;;2.13;2.03;;;;;;;13.96;100.00;94502.97;4973231;28;20224;-83
2021/05/29 02:52:38;;;;;;;3.50;2.20;;;;;;;13.87;100.00;94504.31;4972820;28;20205;-82
2021/05/29 02:55:06;;;;;;;2.57;2.37;;;;;;;13.87;100.00;94489.25;4972844;28;20239;-83
2021/05/29 02:57:33;;;;;;;2.70;2.43;;;;;;;13.89;100.00;94483.75;4973028;28;20292;-82
2021/05/29 03:00:00;;;;;;;4.23;2.83;;;;;;;13.83;100.00;94487.28;4972894;28;20249;-82
2021/05/29 03:02:28;;;;;;;2.00;1.77;;;;;;;13.86;100.00;94485.00;4972790;28;20201;-82
2021/05/29 03:04:55;;;;;;;2.20;2.00;;;;;;;13.93;100.00;94491.03;4973018;28;20228;-83
2021/05/29 03:07:22;;;;;;;3.00;2.27;;;;;;;13.92;100.00;94489.38;4973228;28;20582;-83
2021/05/29 03:09:49;;;;;;;2.30;2.10;;;;;;;13.89;100.00;94489.84;4972756;28;20620;-82
2021/05/29 03:12:16;;;;;;;2.27;2.07;;;;;;;13.73;100.00;94482.53;4972751;28;20292;-82
2021/05/29 03:14:43;;;;;;;2.27;2.13;;;;;;;13.61;100.00;94460.53;4972869;28;20197;-83
2021/05/29 03:17:10;;;;;;;2.47;2.27;;;;;;;13.66;100.00;94460.69;4973146;28;20304;-83
2021/05/29 03:19:37;;;;;;;4.40;2.40;;;;;;;13.57;100.00;94463.59;4972483;28;20205;-83
2021/05/29 03:22:04;;;;;;;3.20;2.40;;;;;;;13.74;100.00;94455.09;4972853;28;20205;-83
2021/05/29 03:24:31;;;;;;;2.20;2.10;;;;;;;13.69;100.00;94468.16;4972840;28;20581;-83
2021/05/29 03:26:58;;;;;;;2.73;1.90;;;;;;;13.74;100.00;94468.28;4973140;28;20228;-83
2021/05/29 03:29:25;;;;;;;2.20;2.10;;;;;;;13.86;100.00;94463.88;4972647;28;20201;-82
2021/05/29 03:31:52;;;;;;;3.23;2.03;;;;;;;13.85;100.00;94462.25;4972402;28;20677;-82
2021/05/29 03:34:19;;;;;;;5.77;3.40;;;;;;;13.92;100.00;94457.69;4972751;28;20582;-82
2021/05/29 03:36:47;;;;;;;3.70;2.53;;;;;;;13.96;100.00;94469.44;4973094;28;20201;-82
2021/05/29 03:39:14;;;;;;;2.20;2.07;;;;;;;13.93;100.00;94485.75;4972767;28;20583;-82
2021/05/29 03:41:40;;;;;;;1.87;1.77;;;;;;;13.92;100.00;94486.75;4972470;28;20205;-82
2021/05/29 03:44:07;;;;;;;2.27;2.17;;;;;;;13.94;100.00;94479.41;4972697;28;20288;-82
2021/05/29 03:46:34;;;;;;;2.33;2.23;;;;;;;14.05;100.00;94483.13;4972665;28;20236;-82
2021/05/29 03:49:01;;;;;;;2.33;2.13;;;;;;;14.08;100.00;94484.53;4972209;28;20201;-82
2021/05/29 03:51:28;;;;;;;3.07;2.60;;;;;;;14.08;100.00;94493.25;4976249;28;20201;-82
2021/05/29 03:53:55;;;;;;;2.20;2.10;;;;;;;14.04;100.00;94492.91;4975931;28;20240;-82
2021/05/29 03:56:22;;;;;;;3.03;2.00;;;;;;;14.03;100.00;94491.28;4973380;28;20685;-82
2021/05/29 03:58:49;;;;;;;2.60;2.40;;;;;;;14.07;100.00;94480.28;4975585;28;20204;-84
2021/05/29 04:01:16;;;;;;;3.10;2.10;;;;;;;14.10;100.00;94485.94;4975780;28;20628;-84
2021/05/29 04:03:43;;;;;;;3.53;2.13;;;;;;;14.10;100.00;94482.44;4975708;28;20240;-84
2021/05/29 04:06:10;;;;;;;2.93;2.70;;;;;;;14.14;100.00;94487.09;4975782;28;20235;-84
2021/05/29 04:08:36;;;;;;;3.10;2.33;;;;;;;14.22;100.00;94496.53;4975582;28;20275;-84
2021/05/29 04:11:04;;;;;;;2.70;2.03;;;;;;;14.33;100.00;94506.31;4975325;28;20292;-84
2021/05/29 04:13:31;;;;;;;3.00;2.00;;;;;;;14.45;100.00;94520.41;4975058;28;20216;-85
2021/05/29 04:15:58;;;;;;;2.53;2.10;;;;;;;14.42;100.00;94531.41;4975839;28;20670;-84
2021/05/29 04:18:25;;;;;;;2.57;2.17;;;;;;;14.49;100.00;94544.53;4975436;28;20689;-85
2021/05/29 04:20:51;;;;;;;2.10;2.00;;;;;;;14.58;100.00;94550.34;4975329;28;20212;-85
2021/05/29 04:23:18;;;;;;;3.13;2.07;;;;;;;14.55;100.00;94562.19;4975683;28;20227;-86
2021/05/29 04:25:46;;;;;;;4.97;3.70;;;;;;;14.57;100.00;94551.38;4975456;28;20229;-85
2021/05/29 04:28:14;;;;;;;5.07;3.83;;;;;;;14.53;100.00;94539.66;4975237;28;20260;-86
2021/05/29 04:30:40;;;;;;;3.33;3.10;;;;;;;14.63;100.00;94527.50;4975375;28;20201;-84
2021/05/29 04:33:07;;;;;;;4.53;4.13;;;;;;;14.70;100.00;94538.78;4974976;28;20594;-84
2021/05/29 04:35:34;;;;;;;2.50;2.30;;;;;;;14.69;100.00;94541.66;4974646;28;20234;-84
2021/05/29 04:38:01;;;;;;;3.20;2.33;;;;;;;14.70;100.00;94544.06;4974781;28;20202;-84
2021/05/29 04:40:28;;;;;;;2.40;2.20;;;;;;;14.72;100.00;94555.22;4975047;28;20222;-85
2021/05/29 04:42:59;;;;;;;3.17;2.70;;;;;;;14.64;100.00;94552.09;4975180;28;20569;-85
2021/05/29 04:45:27;;;;;;;2.60;2.47;;;;;;;14.76;100.00;94533.63;4974763;28;20214;-83
2021/05/29 04:47:54;;;;;;;3.27;2.50;;;;;;;14.76;100.00;94530.97;4975042;28;20208;-83
2021/05/29 04:50:31;;;;;;;4.57;2.27;;;;;;;14.80;100.00;94538.22;4974904;28;20198;-83
2021/05/29 04:52:58;;;;;;;2.50;2.30;;;;;;;14.82;100.00;94549.38;4978746;28;20289;-83
2021/05/29 04:55:25;;;;;;;2.30;2.00;;;;;;;14.88;100.00;94553.75;4974804;28;20212;-83
2021/05/29 04:57:52;;;;;;;3.13;1.90;;;;;;;14.93;100.00;94575.06;4974864;28;20214;-83
2021/05/29 05:00:19;;;;;;;3.83;2.00;;;;;;;15.01;100.00;94581.84;4974699;28;20197;-83
2021/05/29 05:02:47;;;;;;;7.87;2.13;;;;;;;14.99;100.00;94597.94;4973710;28;20630;-83
2021/05/29 05:05:14;;;;;;;2.57;2.37;;;;;;;15.11;100.00;94584.75;4974451;28;20229;-83
2021/05/29 05:07:41;;;;;;;3.73;2.27;;;;;;;15.06;100.00;94613.72;4974993;28;20212;-83
2021/05/29 05:10:09;;;;;;;2.63;2.13;;;;;;;15.07;100.00;94606.63;4974466;28;20197;-83
2021/05/29 05:12:36;;;;;;;3.60;2.10;;;;;;;15.19;100.00;94605.59;4974394;28;20197;-83
2021/05/29 05:15:03;;;;;;;2.43;2.23;;;;;;;15.28;100.00;94599.97;4974653;28;20202;-83
2021/05/29 05:17:29;;;;;;;3.57;2.10;;;;;;;15.21;100.00;94613.31;4974530;28;20202;-83
2021/05/29 05:19:57;;;;;;;6.03;2.07;;;;;;;15.32;100.00;94623.09;4974245;28;20226;-83
2021/05/29 05:22:24;;;;;;;2.27;2.17;;;;;;;15.29;100.00;94639.44;4974697;28;20645;-82
2021/05/29 05:24:51;;;;;;;3.40;2.50;;;;;;;15.21;100.00;94634.47;4974482;28;20343;-83
2021/05/29 05:27:18;;;;;;;2.87;2.37;;;;;;;15.21;100.00;94621.25;4974098;28;20572;-84
2021/05/29 05:29:45;;;;;;;2.90;2.33;;;;;;;15.18;100.00;94611.91;4972650;28;20234;-84
2021/05/29 05:32:11;;;;;;;2.83;2.20;;;;;;;15.28;100.00;94600.78;4973599;28;20209;-85
2021/05/29 05:34:38;;;;;;;4.97;2.47;;;;;;;15.39;100.00;94605.28;4973868;28;20698;-87
2021/05/29 05:37:07;;;;;;;3.70;2.67;;;;;;;15.56;100.00;94636.38;4974589;28;20225;-87
2021/05/29 05:39:35;;;;;;;2.83;2.63;;;;;;;15.53;100.00;94648.22;4974442;28;20207;-85
2021/05/29 05:42:03;;;;;;;2.03;1.93;;;;;;;15.60;100.00;94666.66;4974312;28;20230;-87
2021/05/29 05:44:29;;;;;;;2.23;2.03;;;;;;;15.79;100.00;94686.72;4974174;28;20226;-86
2021/05/29 05:46:56;;;;;;;2.50;2.10;;;;;;;15.68;100.00;94703.41;4974218;28;20241;-83
2021/05/29 05:49:23;;;;;;;2.20;2.10;;;;;;;15.79;100.00;94725.66;4973410;28;20204;-83
2021/05/29 05:51:50;;;;;;;6.17;2.20;;;;;;;15.74;100.00;94747.53;4973860;28;20202;-83
2021/05/29 05:54:18;;;;;;;2.33;2.10;;;;;;;15.80;100.00;94743.97;4973626;28;20204;-83
2021/05/29 05:56:44;;;;;;;3.33;2.10;;;;;;;15.87;100.00;94752.63;4973800;28;20672;-83
2021/05/29 05:59:11;;;;;;;2.23;1.80;;;;;;;15.96;100.00;94784.06;4973331;28;20207;-82
2021/05/29 06:01:39;;;;;;;4.83;1.87;;;;;;;15.91;100.00;94796.16;4973588;28;20242;-82
2021/05/29 06:04:06;;;;;;;2.10;1.80;;;;;;;16.03;100.00;94798.03;4973375;28;20284;-82
2021/05/29 06:06:32;;;;;;;4.17;2.57;;;;;;;16.03;100.00;94792.72;4973674;28;20209;-83
2021/05/29 06:08:59;;;;;;;1.97;1.87;;;;;;;16.63;100.00;94792.53;4973364;28;20207;-83
2021/05/29 06:11:27;;;;;;;2.33;2.07;;;;;;;16.60;100.00;94849.50;4973451;28;20282;-82
2021/05/29 06:19:24;;;;;;;5.47;2.23;;;;;;;16.52;100.00;94867.59;4973375;28;20574;-82
2021/05/29 06:21:52;;;;;;;3.73;2.33;;;;;;;16.49;100.00;94876.84;4973203;28;20295;-82
2021/05/29 06:24:21;;;;;;;3.30;2.67;;;;;;;16.49;100.00;94881.34;4973142;28;20205;-82
2021/05/29 06:26:49;;;;;;;2.97;2.40;;;;;;;16.50;100.00;94854.56;4973431;28;20239;-82
2021/05/29 06:29:16;;;;;;;4.63;2.63;;;;;;;16.60;100.00;94857.47;4973164;28;20204;-82
2021/05/29 06:31:43;;;;;;;3.13;2.33;;;;;;;16.71;100.00;94842.56;4973109;28;20200;-82
2021/05/29 06:34:10;;;;;;;4.60;2.10;;;;;;;16.72;100.00;94878.66;4973430;28;20282;-83
2021/05/29 06:36:37;;;;;;;2.17;1.97;;;;;;;16.91;100.00;94866.13;4973051;28;20246;-83
2021/05/29 06:39:06;;;;;;;2.60;2.40;;;;;;;16.96;100.00;94884.81;4973446;28;20213;-83
2021/05/29 06:41:33;;;;;;;2.40;2.03;;;;;;;16.94;100.00;94902.84;4972998;28;20196;-83
2021/05/29 06:44:01;;;;;;;2.50;2.30;;;;;;;17.06;100.00;94911.56;4973422;28;20583;-82
2021/05/29 06:46:27;;;;;;;8.67;4.57;;;;;;;17.01;100.00;94921.28;4973401;28;20298;-82
2021/05/29 06:48:55;;;;;;;5.63;2.90;;;;;;;17.16;100.00;94894.28;4973028;28;20666;-83
2021/05/29 06:51:32;;;;;;;2.93;2.70;;;;;;;17.13;100.00;94916.78;4972908;28;20214;-82
2021/05/29 06:54:02;;;;;;;3.33;2.80;;;;;;;17.04;100.00;94923.47;4973239;28;20593;-83
2021/05/29 06:59:15;;;;;;;4.67;2.67;;;;;;;17.13;100.00;94935.34;4972777;28;20188;-82
2021/05/29 07:01:42;;;;;;;3.33;2.60;;;;;;;17.25;100.00;94940.63;4973187;28;20212;-82
2021/05/29 07:04:09;;;;;;;2.40;2.20;;;;;;;17.27;100.00;94931.41;4972757;28;20200;-82
2021/05/29 07:06:35;;;;;;;2.30;2.20;;;;;;;17.26;100.00;94943.09;4973269;28;20779;-82
2021/05/29 07:09:03;;;;;;;3.97;2.27;;;;;;;17.21;100.00;94961.53;4972884;28;20626;-82
2021/05/29 07:11:32;;;;;;;2.90;2.30;;;;;;;17.46;100.00;94968.47;4972880;28;20581;-82
2021/05/29 07:13:59;;;;;;;4.90;2.20;;;;;;;17.52;100.00;94970.19;4972747;28;20201;-81
2021/05/29 07:16:27;;;;;;;4.17;1.97;;;;;;;17.41;100.00;94981.63;4973174;28;20200;-82
2021/05/29 07:18:54;;;;;;;2.10;1.87;;;;;;;17.39;100.00;94987.19;4972656;28;20236;-82
2021/05/29 07:21:20;;;;;;;2.40;1.73;;;;;;;17.37;100.00;94999.06;4973397;28;20647;-82
2021/05/29 07:23:47;;;;;;;6.57;2.20;;;;;;;17.14;100.00;95008.63;4972689;28;20591;-83
2021/05/29 07:26:14;;;;;;;4.63;2.03;;;;;;;17.35;100.00;94994.81;4976276;28;20250;-82
2021/05/29 07:28:41;;;;;;;2.03;1.83;;;;;;;17.31;100.00;94998.13;4976514;28;20240;-81
2021/05/29 07:31:08;;;;;;;3.73;2.07;;;;;;;17.35;100.00;95021.38;4976427;28;20681;-81
2021/05/29 07:33:36;;;;;;;2.70;2.20;;;;;;;17.51;100.00;95016.38;4976332;28;20282;-81
2021/05/29 07:36:04;;;;;;;2.93;2.23;;;;;;;17.48;100.00;95014.19;4976304;28;20233;-82
2021/05/29 07:38:30;;;;;;;2.30;2.10;;;;;;;17.78;100.00;94996.28;4976034;28;20221;-82
2021/05/29 07:40:57;;;;;;;2.17;2.07;;;;;;;17.87;100.00;95025.13;4976532;28;20336;-82
2021/05/29 07:43:24;;;;;;;1.77;1.67;;;;;;;17.85;100.00;95045.84;4976217;28;20216;-81
2021/05/29 07:45:51;;;;;;;3.83;1.87;;;;;;;17.81;100.00;95033.03;4976249;28;20225;-81
2021/05/29 07:48:18;;;;;;;2.30;1.80;;;;;;;17.73;100.00;95038.66;4976206;28;20209;-91
2021/05/29 07:50:59;;;;;;;1.67;1.37;;;;;;;18.00;100.00;95023.03;4976659;28;20208;-83
2021/05/29 07:53:27;;;;;;;1.70;1.60;;;;;;;18.89;100.00;95048.41;4975988;28;20196;-82
2021/05/29 07:55:54;;;;;;;2.33;1.63;;;;;;;19.45;100.00;95131.91;4976225;28;20670;-82
2021/05/29 07:58:21;;;;;;;4.07;1.97;;;;;;;19.76;100.00;95181.19;4975948;28;20200;-82
2021/05/29 08:00:51;;;;;;;2.10;1.90;;;;;;;20.13;100.00;95216.19;4976080;28;20233;-82
2021/05/29 08:03:20;;;;;;;2.60;1.63;;;;;;;20.46;100.00;95230.50;4976096;28;20205;-82
2021/05/29 08:05:49;;;;;;;3.50;1.90;;;;;;;20.07;100.00;95318.50;4975914;28;20235;-82
2021/05/29 08:08:17;;;;;;;2.27;1.47;;;;;;;20.58;100.00;95306.00;4975881;28;20233;-82
2021/05/29 08:10:45;;;;;;;2.10;2.00;;;;;;;20.80;100.00;95345.28;4975920;28;20236;-82
2021/05/29 08:13:12;;;;;;;2.40;2.20;;;;;;;20.56;100.00;95385.50;4975888;28;20233;-82
2021/05/29 08:15:39;;;;;;;3.27;1.77;;;;;;;19.92;100.00;95393.72;4975815;28;20205;-83
2021/05/29 08:18:07;;;;;;;2.27;1.87;;;;;;;19.88;100.00;95357.94;4975232;28;20208;-82
2021/05/29 08:20:35;;;;;;;4.40;2.00;;;;;;;19.66;100.00;95344.44;4975740;28;20208;-83
2021/05/29 08:23:03;;;;;;;3.00;1.80;;;;;;;19.52;100.00;95299.63;4975487;28;20237;-80
2021/05/29 08:25:30;;;;;;;3.53;2.10;;;;;;;19.53;100.00;95307.38;4975510;28;20299;-79
2021/05/29 08:27:56;;;;;;;5.10;2.30;;;;;;;19.07;100.00;95292.34;4975258;28;20200;-80
2021/05/29 08:30:23;;;;;;;2.33;2.23;;;;;;;19.18;100.00;95263.00;4975713;28;20593;-80
2021/05/29 08:32:50;;;;;;;5.50;2.13;;;;;;;19.74;100.00;95289.94;4975373;28;20201;-80
2021/05/29 08:35:17;;;;;;;2.23;2.03;;;;;;;20.53;100.00;95329.94;4975069;28;20236;-80
2021/05/29 08:37:45;;;;;;;2.30;2.10;;;;;;;20.32;100.00;95426.72;4975163;28;20236;-81
2021/05/29 08:40:16;;;;;;;3.30;1.60;;;;;;;20.60;100.00;95417.88;4975273;28;20674;-80
2021/05/29 08:42:43;;;;;;;6.63;2.03;;;;;;;20.28;100.00;95479.75;4975360;28;20194;-81
2021/05/29 08:45:11;;;;;;;1.70;1.60;;;;;;;20.67;100.00;95446.03;4975014;28;20233;-82
2021/05/29 08:47:38;;;;;;;1.93;1.83;;;;;;;20.59;100.00;95457.13;4973792;28;20866;-82
2021/05/29 08:50:07;;;;;;;1.90;1.70;;;;;;;20.64;100.00;95499.94;4973046;28;20243;-81
2021/05/29 08:52:37;;;;;;;1.93;1.70;;;;;;;20.69;100.00;95562.47;4974441;28;20242;-82
2021/05/29 08:55:05;;;;;;;3.60;1.60;;;;;;;20.54;100.00;95553.13;4974916;28;20208;-81
2021/05/29 08:57:33;;;;;;;2.07;1.97;;;;;;;21.01;100.00;95487.97;4975129;28;20212;-81
2021/05/29 09:00:00;;;;;;;1.70;1.60;;;;;;;21.60;100.00;95512.41;4974883;28;20744;-81
2021/05/29 09:02:28;;;;;;;1.53;1.43;;;;;;;21.94;100.00;95609.44;4975267;28;20205;-80
2021/05/29 09:05:04;;;;;;;1.60;1.50;;;;;;;21.94;100.00;95665.63;4974454;28;20267;-81
2021/05/29 09:07:31;;;;;;;1.70;1.60;;;;;;;21.99;100.00;95620.19;4974917;28;20192;-82
2021/05/29 09:10:20;;;;;;;1.50;1.40;;;;;;;22.42;100.00;95610.63;4974600;28;20208;-81
2021/05/29 09:13:04;;;;;;;3.73;1.80;;;;;;;22.46;100.00;95630.50;4974844;28;20193;-81
2021/05/29 09:15:44;;;;;;;1.40;1.30;;;;;;;22.69;100.00;95647.41;4974576;28;20196;-81
2021/05/29 09:18:26;;;;;;;2.30;1.97;;;;;;;22.87;100.00;95671.19;4974546;28;20215;-81
2021/05/29 09:20:53;;;;;;;1.63;1.47;;;;;;;22.67;100.00;95685.13;4974882;28;20177;-81
2021/05/29 09:23:20;;;;;;;2.43;2.23;;;;;;;22.45;100.00;95665.56;4974412;28;20299;-81
2021/05/29 09:25:56;;;;;;;3.30;2.00;;;;;;;22.14;100.00;95624.97;4974756;28;20232;-81
2021/05/29 09:28:24;;;;;;;2.47;1.90;;;;;;;22.08;100.00;95578.59;4974032;28;20212;-81
2021/05/29 09:30:53;;;;;;;2.43;2.23;;;;;;;22.19;100.00;95570.72;4974455;28;20227;-81
2021/05/29 09:33:22;;;;;;;3.00;1.67;;;;;;;22.51;100.00;95533.34;4974183;28;20271;-81
2021/05/29 09:35:55;;;;;;;2.37;2.03;;;;;;;22.92;100.00;95603.41;4974201;28;20368;-81
2021/05/29 09:38:23;;;;;;;2.40;1.80;;;;;;;22.88;100.00;95642.50;4973963;28;20951;-81
2021/05/29 09:40:53;;;;;;;3.13;1.50;;;;;;;22.41;100.00;95651.88;4974244;28;20260;-81
2021/05/29 09:43:20;;;;;;;2.10;1.90;;;;;;;22.97;100.00;95580.22;4974001;28;20291;-81
2021/05/29 09:45:58;;;;;;;1.77;1.67;;;;;;;23.08;100.00;95666.88;4974098;28;20702;-81
2021/05/29 09:48:25;;;;;;;4.30;1.67;;;;;;;22.31;100.00;95684.66;4973279;28;20196;-81
2021/05/29 09:51:04;;;;;;;1.50;1.40;;;;;;;22.31;100.00;95540.09;4974028;28;20201;-81
2021/05/29 09:53:32;;;;;;;3.17;1.60;;;;;;;22.41;100.00;95501.09;4973925;28;20195;-81
2021/05/29 09:55:59;;;;;;;1.50;1.40;;;;;;;22.96;100.00;95580.44;4973721;28;20204;-81
2021/05/29 09:58:50;;;;;;;2.17;1.57;;;;;;;23.27;100.00;95660.09;4973752;28;20213;-81
2021/05/29 10:01:52;;;;;;;4.03;1.53;;;;;;;22.77;100.00;95720.09;4973875;28;20190;-82
2021/05/29 10:04:36;;;;;;;2.53;1.53;;;;;;;23.19;100.00;95676.63;4973352;28;20192;-82
2021/05/29 10:07:05;;;;;;;5.90;1.83;;;;;;;23.09;100.00;95595.31;4973881;28;20197;-81
2021/05/29 10:09:32;;;;;;;2.33;1.30;;;;;;;22.60;100.00;95627.44;4973803;28;20216;-81
2021/05/29 10:12:01;;;;;;;1.70;1.60;;;;;;;22.39;100.00;95583.56;4974002;28;20635;-81
2021/05/29 10:14:30;;;;;;;1.70;1.60;;;;;;;22.20;100.00;95586.56;4973262;28;20208;-81
2021/05/29 10:16:58;;;;;;;2.27;1.30;;;;;;;22.08;100.00;95666.09;4973857;28;20201;-84
2021/05/29 10:19:26;;;;;;;1.50;1.40;;;;;;;21.93;100.00;95649.84;4973452;28;20651;-82
2021/05/29 10:21:54;;;;;;;1.87;1.23;;;;;;;22.06;100.00;95623.53;4973672;28;20205;-81
2021/05/29 10:24:22;;;;;;;1.70;1.60;;;;;;;22.24;100.00;95651.91;4973355;28;20365;-81
2021/05/29 10:26:50;;;;;;;2.47;1.70;;;;;;;22.02;100.00;95634.97;4973414;28;20233;-81
2021/05/29 10:29:17;;;;;;;1.77;1.67;;;;;;;21.96;100.00;95572.56;4973229;28;20197;-81
2021/05/29 10:31:44;;;;;;;1.67;1.57;;;;;;;21.98;100.00;95569.63;4973136;28;20292;-81
2021/05/29 10:34:12;;;;;;;2.30;1.40;;;;;;;21.51;100.00;95647.53;4973226;28;20295;-81
2021/05/29 10:36:44;;;;;;;1.80;1.50;;;;;;;21.51;100.00;95615.47;4973211;28;20233;-81
2021/05/29 10:39:14;;;;;;;2.50;2.10;;;;;;;21.51;100.00;95618.13;4972918;28;20189;-81
2021/05/29 10:42:05;;;;;;;1.70;1.60;;;;;;;21.51;100.00;95559.31;4973246;28;20197;-81
2021/05/29 10:44:35;;;;;;;2.53;1.60;;;;;;;21.81;100.00;95551.72;4963176;28;20205;-81
2021/05/29 10:47:09;;;;;;;3.90;2.13;;;;;;;21.33;100.00;95627.16;4973037;28;20182;-81
2021/05/29 10:49:56;;;;;;;1.90;1.77;;;;;;;21.43;100.00;95603.31;4973008;28;20213;-81
2021/05/29 10:52:50;;;;;;;1.83;1.60;;;;;;;21.30;100.00;95544.78;4973446;28;20193;-81
2021/05/29 10:55:35;;;;;;;4.50;1.70;;;;;;;21.45;100.00;95558.44;4971695;28;20197;-81
2021/05/29 10:58:03;;;;;;;2.13;2.00;;;;;;;21.30;100.00;95609.78;4973025;28;20665;-82
2021/05/29 11:00:58;;;;;;;1.67;1.57;;;;;;;21.24;100.00;95543.94;4975279;28;20748;-81
2021/05/29 11:03:29;;;;;;;1.70;1.60;;;;;;;21.18;100.00;95589.50;4976982;28;20208;-81
2021/05/29 11:06:00;;;;;;;2.60;1.53;;;;;;;21.17;100.00;95595.91;4977035;28;20279;-81
2021/05/29 11:08:47;;;;;;;2.10;1.50;;;;;;;21.18;100.00;95610.88;4976968;28;20189;-81
2021/05/29 11:11:51;;;;;;;2.57;2.37;;;;;;;21.25;100.00;95639.06;4976965;28;20279;-81
2021/05/29 11:14:18;;;;;;;1.60;1.50;;;;;;;21.35;100.00;95627.78;4977104;28;20200;-80
2021/05/29 11:17:11;;;;;;;1.80;1.70;;;;;;;21.22;100.00;95578.09;4976461;28;20927;-81
2021/05/29 11:19:41;;;;;;;8.20;4.50;;;;;;;21.24;100.00;95593.91;4977073;28;20573;-81
2021/05/29 11:22:10;;;;;;;1.67;1.57;;;;;;;21.02;100.00;95681.94;4976789;28;20341;-80
2021/05/29 11:24:42;;;;;;;2.63;1.47;;;;;;;21.24;100.00;95658.03;4976593;28;20208;-80
2021/05/29 11:27:16;;;;;;;5.77;4.07;;;;;;;20.90;100.00;95617.88;4976332;28;20193;-80
2021/05/29 11:29:51;;;;;;;2.23;1.77;;;;;;;20.84;100.00;95579.56;4976476;28;20231;-82
2021/05/29 11:32:44;;;;;;;3.77;1.80;;;;;;;20.79;100.00;95504.72;4976606;28;20228;-81
2021/05/29 11:35:31;;;;;;;1.90;1.80;;;;;;;20.97;100.00;95524.25;4975873;28;20232;-81
2021/05/29 11:38:13;;;;;;;3.23;1.57;;;;;;;20.89;100.00;95523.59;4976423;28;20748;-82
2021/05/29 11:40:57;;;;;;;2.40;2.20;;;;;;;20.98;100.00;95534.66;4976468;28;20224;-81
2021/05/29 11:43:43;;;;;;;2.83;1.57;;;;;;;21.00;100.00;95575.31;4975471;28;20205;-81